THY6048 LIML-LIRN
Flight info
| Callsign | THY6048 |
|---|---|
| Flight time | 1h 2m |
| Altitude | 35000 |
| Route | LOGDI7A LOGDI DCT LOMED DCT GENGI DCT EVULI DCT ERIKA ERIKA1A |
| Aircraft | B739/M-SDE/L |
Departure
| Time | 2026-05-04 16:12 |
|---|---|
| Airport | Milano Linate Airport (LIML) |
Arrival
| Time | 2026-05-04 17:15 |
|---|---|
| Airport | Naples International Airport (LIRN) |
| Time | Latitude | Longitude | Altitude | Speed | Heading |
|---|---|---|---|---|---|
| 2026-05-04 15:45 | 45.45676 | 9.28057 | 362 ft | 0 kts | 91° |
| 2026-05-04 15:58 | 45.45675 | 9.28058 | 362 ft | 1 kts | 91° |
| 2026-05-04 15:59 | 45.45675 | 9.28084 | 362 ft | 5 kts | 91° |
| 2026-05-04 15:59 | 45.45657 | 9.28144 | 366 ft | 9 kts | 142° |
| 2026-05-04 15:59 | 45.45582 | 9.28161 | 363 ft | 13 kts | 180° |
| 2026-05-04 15:59 | 45.45469 | 9.28157 | 365 ft | 11 kts | 182° |
| 2026-05-04 16:00 | 45.45430 | 9.28154 | 361 ft | 0 kts | 182° |
| 2026-05-04 16:00 | 45.45423 | 9.28154 | 361 ft | 3 kts | 182° |
| 2026-05-04 16:00 | 45.45390 | 9.28151 | 364 ft | 7 kts | 185° |
| 2026-05-04 16:01 | 45.45325 | 9.28120 | 361 ft | 13 kts | 206° |
| 2026-05-04 16:01 | 45.45239 | 9.28059 | 359 ft | 11 kts | 199° |
| 2026-05-04 16:01 | 45.45150 | 9.28055 | 359 ft | 15 kts | 175° |
| 2026-05-04 16:01 | 45.45026 | 9.28069 | 361 ft | 20 kts | 176° |
| 2026-05-04 16:02 | 45.44928 | 9.27951 | 357 ft | 13 kts | 231° |
| 2026-05-04 16:02 | 45.44844 | 9.27942 | 358 ft | 14 kts | 177° |
| 2026-05-04 16:02 | 45.44590 | 9.27969 | 359 ft | 22 kts | 176° |
| 2026-05-04 16:03 | 45.44423 | 9.27986 | 362 ft | 26 kts | 176° |
| 2026-05-04 16:03 | 45.44232 | 9.28008 | 358 ft | 29 kts | 175° |
| 2026-05-04 16:03 | 45.44022 | 9.28030 | 357 ft | 32 kts | 176° |
| 2026-05-04 16:03 | 45.43793 | 9.28055 | 353 ft | 34 kts | 175° |
| 2026-05-04 16:04 | 45.43573 | 9.28079 | 348 ft | 23 kts | 175° |
| 2026-05-04 16:04 | 45.43554 | 9.28081 | 348 ft | 0 kts | 175° |
| 2026-05-04 16:06 | 45.43476 | 9.28073 | 353 ft | 8 kts | 207° |
| 2026-05-04 16:07 | 45.43454 | 9.28030 | 347 ft | 0 kts | 252° |
| 2026-05-04 16:08 | 45.43453 | 9.28027 | 347 ft | 1 kts | 252° |
| 2026-05-04 16:09 | 45.43445 | 9.27969 | 350 ft | 0 kts | 266° |
| 2026-05-04 16:11 | 45.43443 | 9.27897 | 351 ft | 7 kts | 273° |
| 2026-05-04 16:11 | 45.43470 | 9.27831 | 353 ft | 10 kts | 327° |
| 2026-05-04 16:12 | 45.44627 | 9.27696 | 358 ft | 148 kts | 355° |
| 2026-05-04 16:12 | 45.48381 | 9.27675 | 2256 ft | 187 kts | 4° |
| 2026-05-04 16:13 | 45.51134 | 9.28344 | 3263 ft | 210 kts | 28° |
| 2026-05-04 16:13 | 45.52125 | 9.31919 | 4337 ft | 218 kts | 112° |
| 2026-05-04 16:14 | 45.50358 | 9.35588 | 5087 ft | 242 kts | 126° |
| 2026-05-04 16:14 | 45.48344 | 9.39900 | 6142 ft | 271 kts | 124° |
| 2026-05-04 16:15 | 45.45186 | 9.46579 | 8621 ft | 274 kts | 126° |
| 2026-05-04 16:16 | 45.43029 | 9.51125 | 10197 ft | 279 kts | 127° |
| 2026-05-04 16:16 | 45.39411 | 9.58728 | 10878 ft | 342 kts | 127° |
| 2026-05-04 16:17 | 45.36144 | 9.63904 | 11545 ft | 361 kts | 151° |
| 2026-05-04 16:18 | 45.29539 | 9.69520 | 13276 ft | 376 kts | 151° |
| 2026-05-04 16:18 | 45.27297 | 9.71455 | 13956 ft | 378 kts | 150° |
| 2026-05-04 16:19 | 45.20444 | 9.77394 | 15540 ft | 391 kts | 150° |
| 2026-05-04 16:19 | 45.15757 | 9.81455 | 16572 ft | 399 kts | 151° |
| 2026-05-04 16:20 | 45.08556 | 9.87679 | 18048 ft | 411 kts | 151° |
| 2026-05-04 16:20 | 45.03636 | 9.91923 | 18989 ft | 417 kts | 151° |
| 2026-05-04 16:21 | 44.96164 | 9.98350 | 20412 ft | 423 kts | 151° |
| 2026-05-04 16:22 | 44.91099 | 10.02695 | 21284 ft | 428 kts | 151° |
| 2026-05-04 16:22 | 44.83417 | 10.09269 | 22615 ft | 434 kts | 151° |
| 2026-05-04 16:23 | 44.75596 | 10.15943 | 23820 ft | 441 kts | 151° |
| 2026-05-04 16:24 | 44.65436 | 10.26137 | 25005 ft | 458 kts | 141° |
| 2026-05-04 16:25 | 44.60630 | 10.32136 | 25631 ft | 464 kts | 141° |
| 2026-05-04 16:26 | 44.50735 | 10.44066 | 26831 ft | 474 kts | 143° |
| 2026-05-04 16:26 | 44.43113 | 10.53059 | 27615 ft | 482 kts | 143° |
| 2026-05-04 16:27 | 44.39033 | 10.57863 | 28026 ft | 486 kts | 143° |
| 2026-05-04 16:28 | 44.31249 | 10.67015 | 29196 ft | 485 kts | 143° |
| 2026-05-04 16:28 | 44.23488 | 10.76105 | 30276 ft | 487 kts | 143° |
| 2026-05-04 16:29 | 44.13157 | 10.88158 | 31741 ft | 481 kts | 143° |
| 2026-05-04 16:30 | 44.05448 | 10.97113 | 32568 ft | 482 kts | 143° |
| 2026-05-04 16:31 | 44.00361 | 11.03179 | 33168 ft | 481 kts | 141° |
| 2026-05-04 16:31 | 43.93077 | 11.12735 | 33891 ft | 483 kts | 140° |
| 2026-05-04 16:32 | 43.85749 | 11.22365 | 34553 ft | 482 kts | 141° |
| 2026-05-04 16:33 | 43.80826 | 11.28751 | 34888 ft | 485 kts | 141° |
| 2026-05-04 16:33 | 43.75889 | 11.35129 | 35095 ft | 487 kts | 141° |
| 2026-05-04 16:34 | 43.68491 | 11.44662 | 35111 ft | 482 kts | 141° |
| 2026-05-04 16:35 | 43.53787 | 11.63511 | 35122 ft | 482 kts | 141° |
| 2026-05-04 16:36 | 43.46379 | 11.72956 | 35123 ft | 486 kts | 141° |
| 2026-05-04 16:37 | 43.38887 | 11.82476 | 35101 ft | 490 kts | 142° |
| 2026-05-04 16:38 | 43.28789 | 11.95257 | 35129 ft | 496 kts | 142° |
| 2026-05-04 16:39 | 43.16026 | 12.11328 | 35109 ft | 498 kts | 142° |
| 2026-05-04 16:40 | 43.05803 | 12.24128 | 35112 ft | 498 kts | 142° |
| 2026-05-04 16:41 | 42.93009 | 12.40063 | 35104 ft | 499 kts | 142° |
| 2026-05-04 16:43 | 42.80116 | 12.56027 | 35131 ft | 502 kts | 142° |
| 2026-05-04 16:43 | 42.72341 | 12.65610 | 35119 ft | 502 kts | 142° |
| 2026-05-04 16:45 | 42.56709 | 12.84773 | 35158 ft | 506 kts | 142° |
| 2026-05-04 16:46 | 42.44484 | 12.99669 | 35148 ft | 507 kts | 142° |
| 2026-05-04 16:47 | 42.34065 | 13.12594 | 35112 ft | 508 kts | 140° |
| 2026-05-04 16:48 | 42.23846 | 13.25759 | 35108 ft | 507 kts | 140° |
| 2026-05-04 16:49 | 42.13560 | 13.38835 | 35112 ft | 508 kts | 140° |
| 2026-05-04 16:50 | 42.08397 | 13.45368 | 34538 ft | 518 kts | 140° |
| 2026-05-04 16:50 | 42.03160 | 13.51982 | 32939 ft | 519 kts | 139° |
| 2026-05-04 16:51 | 41.97887 | 13.58632 | 31261 ft | 520 kts | 139° |
| 2026-05-04 16:51 | 41.95247 | 13.61956 | 30405 ft | 521 kts | 139° |
| 2026-05-04 16:51 | 41.89950 | 13.68611 | 28429 ft | 520 kts | 139° |
| 2026-05-04 16:52 | 41.84744 | 13.75140 | 27150 ft | 505 kts | 139° |
| 2026-05-04 16:52 | 41.82187 | 13.78341 | 26497 ft | 499 kts | 139° |
| 2026-05-04 16:53 | 41.77148 | 13.84634 | 25200 ft | 486 kts | 139° |
| 2026-05-04 16:53 | 41.69855 | 13.93717 | 23268 ft | 469 kts | 139° |
| 2026-05-04 16:54 | 41.67484 | 13.96665 | 22606 ft | 462 kts | 138° |
| 2026-05-04 16:55 | 41.58544 | 14.08337 | 20259 ft | 437 kts | 133° |
| 2026-05-04 16:55 | 41.54526 | 14.14317 | 19074 ft | 429 kts | 133° |
| 2026-05-04 16:56 | 41.50530 | 14.20180 | 17805 ft | 423 kts | 134° |
| 2026-05-04 16:56 | 41.44870 | 14.28366 | 17293 ft | 382 kts | 134° |
| 2026-05-04 16:57 | 41.43095 | 14.30926 | 17135 ft | 370 kts | 134° |
| 2026-05-04 16:57 | 41.39438 | 14.35527 | 16520 ft | 355 kts | 141° |
| 2026-05-04 16:58 | 41.33934 | 14.41819 | 15540 ft | 341 kts | 141° |
| 2026-05-04 16:58 | 41.32042 | 14.43673 | 15204 ft | 336 kts | 149° |
| 2026-05-04 16:59 | 41.28057 | 14.46746 | 14552 ft | 326 kts | 160° |
| 2026-05-04 17:00 | 41.20560 | 14.42987 | 13249 ft | 302 kts | 237° |
| 2026-05-04 17:00 | 41.15870 | 14.38373 | 12365 ft | 290 kts | 181° |
| 2026-05-04 17:01 | 41.12122 | 14.39936 | 11803 ft | 286 kts | 150° |
| 2026-05-04 17:01 | 41.09296 | 14.43489 | 11201 ft | 284 kts | 111° |
| 2026-05-04 17:02 | 41.09481 | 14.48481 | 10850 ft | 272 kts | 63° |
| 2026-05-04 17:02 | 41.11452 | 14.52674 | 10537 ft | 265 kts | 57° |
| 2026-05-04 17:03 | 41.12443 | 14.54727 | 10390 ft | 263 kts | 57° |
| 2026-05-04 17:03 | 41.13418 | 14.56767 | 10220 ft | 261 kts | 57° |
| 2026-05-04 17:03 | 41.15333 | 14.60822 | 9898 ft | 260 kts | 58° |
| 2026-05-04 17:04 | 41.17256 | 14.64969 | 9580 ft | 266 kts | 58° |
| 2026-05-04 17:04 | 41.19196 | 14.69162 | 9247 ft | 266 kts | 58° |
| 2026-05-04 17:05 | 41.20121 | 14.73643 | 8923 ft | 251 kts | 111° |
| 2026-05-04 17:05 | 41.17642 | 14.76049 | 8654 ft | 230 kts | 182° |
| 2026-05-04 17:06 | 41.14392 | 14.75480 | 8464 ft | 237 kts | 197° |
| 2026-05-04 17:06 | 41.12824 | 14.74740 | 8051 ft | 247 kts | 208° |
| 2026-05-04 17:07 | 41.10105 | 14.72185 | 7535 ft | 234 kts | 224° |
| 2026-05-04 17:07 | 41.09326 | 14.71150 | 7379 ft | 233 kts | 227° |
| 2026-05-04 17:07 | 41.07833 | 14.68930 | 7152 ft | 260 kts | 230° |
| 2026-05-04 17:07 | 41.06647 | 14.67001 | 7145 ft | 276 kts | 233° |
| 2026-05-04 17:08 | 41.05535 | 14.64909 | 6782 ft | 271 kts | 237° |
| 2026-05-04 17:08 | 41.03667 | 14.60985 | 6078 ft | 234 kts | 238° |
| 2026-05-04 17:08 | 41.02836 | 14.59221 | 5763 ft | 217 kts | 237° |
| 2026-05-04 17:09 | 41.02060 | 14.57587 | 5420 ft | 203 kts | 240° |
| 2026-05-04 17:09 | 41.01364 | 14.56045 | 5177 ft | 189 kts | 235° |
| 2026-05-04 17:09 | 41.00654 | 14.54625 | 4915 ft | 181 kts | 237° |
| 2026-05-04 17:10 | 40.99376 | 14.51912 | 4360 ft | 163 kts | 237° |
| 2026-05-04 17:10 | 40.97633 | 14.48224 | 3697 ft | 149 kts | 237° |
| 2026-05-04 17:11 | 40.97082 | 14.47056 | 3475 ft | 148 kts | 236° |
| 2026-05-04 17:11 | 40.96537 | 14.45905 | 3261 ft | 143 kts | 236° |
| 2026-05-04 17:11 | 40.95485 | 14.43678 | 2835 ft | 148 kts | 237° |
| 2026-05-04 17:12 | 40.94944 | 14.42533 | 2613 ft | 145 kts | 237° |
| 2026-05-04 17:12 | 40.93898 | 14.40317 | 2187 ft | 141 kts | 238° |
| 2026-05-04 17:13 | 40.92361 | 14.37057 | 1575 ft | 138 kts | 239° |
| 2026-05-04 17:14 | 40.90809 | 14.33767 | 945 ft | 138 kts | 239° |
| 2026-05-04 17:14 | 40.90304 | 14.32698 | 718 ft | 138 kts | 239° |
| 2026-05-04 17:14 | 40.89288 | 14.30540 | 318 ft | 137 kts | 240° |
| 2026-05-04 17:15 | 40.88799 | 14.29497 | 251 ft | 124 kts | 239° |
| 2026-05-04 17:15 | 40.88198 | 14.28225 | 299 ft | 39 kts | 238° |
| 2026-05-04 17:16 | 40.88087 | 14.28042 | 309 ft | 3 kts | 176° |
| 2026-05-04 17:16 | 40.88010 | 14.28093 | 307 ft | 7 kts | 151° |
| 2026-05-04 17:17 | 40.87960 | 14.28104 | 307 ft | 8 kts | 196° |
| 2026-05-04 17:17 | 40.87868 | 14.28131 | 308 ft | 0 kts | 141° |